Time;durP1;ratioP1;P1;durP2;ratioP2;P2;SDS_P1;SDS_P2;PMS_P1;PMS_P2;Temp;Humidity;BMP_temperature;BMP_pressure;BME280_temperature;BME280_humidity;BME280_pressure;Samples;Min_cycle;Max_cycle;Signal;HPM_P1;HPM_P2
2023/11/26 00:01:52;;;;;;;8.73;3.23;;;;;;;2.01;98.45;95200.19;4943015;28;20820;-81
2023/11/26 00:04:19;;;;;;;8.03;3.60;;;;;;;2.07;98.48;95202.34;4975535;28;20208;-79
2023/11/26 00:06:45;;;;;;;6.03;2.70;;;;;;;1.97;98.06;95205.53;4965474;28;20665;-78
2023/11/26 00:09:11;;;;;;;5.07;2.47;;;;;;;1.93;97.91;95204.09;4973638;28;20185;-78
2023/11/26 00:11:36;;;;;;;7.00;2.73;;;;;;;1.98;97.83;95214.84;4920275;28;20291;-78
2023/11/26 00:14:02;;;;;;;3.93;1.93;;;;;;;1.98;98.06;95209.72;4957636;28;20181;-78
2023/11/26 00:16:27;;;;;;;5.00;2.40;;;;;;;1.98;97.91;95214.03;4960803;28;20177;-80
2023/11/26 00:18:53;;;;;;;12.47;2.30;;;;;;;1.94;97.37;95212.59;4926345;28;20196;-80
2023/11/26 00:21:18;;;;;;;3.90;1.73;;;;;;;2.01;97.51;95213.00;4986202;28;20185;-80
2023/11/26 00:23:43;;;;;;;3.80;1.93;;;;;;;2.02;96.47;95219.75;4976423;28;20285;-81
2023/11/26 00:26:09;;;;;;;5.73;1.93;;;;;;;1.96;96.35;95215.88;4975710;28;20197;-81
2023/11/26 00:28:34;;;;;;;7.77;2.30;;;;;;;1.92;96.64;95220.38;4975966;28;20315;-81
2023/11/26 00:31:00;;;;;;;7.20;1.70;;;;;;;1.80;96.46;95223.78;4968108;28;20188;-83
2023/11/26 00:33:25;;;;;;;3.33;1.60;;;;;;;1.75;96.78;95228.38;4945209;28;20204;-82
2023/11/26 00:35:50;;;;;;;4.43;1.77;;;;;;;1.67;96.74;95233.16;4958854;28;20181;-81
2023/11/26 00:38:16;;;;;;;4.00;1.50;;;;;;;1.69;96.12;95239.03;4958943;28;20224;-82
2023/11/26 00:40:42;;;;;;;4.50;1.47;;;;;;;1.65;95.68;95229.91;4963930;28;20220;-82
2023/11/26 00:43:07;;;;;;;4.33;1.60;;;;;;;1.62;96.43;95236.03;4963975;28;20705;-82
2023/11/26 00:45:32;;;;;;;3.47;1.53;;;;;;;1.60;96.13;95235.34;4950526;28;20208;-81
2023/11/26 00:47:58;;;;;;;2.93;1.37;;;;;;;1.62;96.06;95235.22;4944637;28;20212;-82
2023/11/26 00:50:23;;;;;;;6.00;1.30;;;;;;;1.52;96.28;95239.31;4984964;28;20188;-82
2023/11/26 00:52:49;;;;;;;3.77;1.23;;;;;;;1.63;95.28;95239.41;4942451;29;20629;-81
2023/11/26 00:55:15;;;;;;;3.90;1.47;;;;;;;1.57;95.69;95239.81;4981618;28;20189;-82
2023/11/26 00:57:40;;;;;;;2.93;1.50;;;;;;;1.46;95.68;95234.59;4935791;29;20178;-83
2023/11/26 01:00:07;;;;;;;4.80;1.60;;;;;;;1.42;95.51;95229.69;4943342;28;20224;-82
2023/11/26 01:02:33;;;;;;;3.93;1.50;;;;;;;1.44;95.13;95237.25;4974702;28;20717;-82
2023/11/26 01:04:58;;;;;;;4.67;1.47;;;;;;;1.40;95.21;95244.28;4960940;28;20201;-82
2023/11/26 01:07:24;;;;;;;4.83;1.70;;;;;;;1.37;95.69;95244.50;4958367;28;20212;-81
2023/11/26 01:09:49;;;;;;;2.60;1.40;;;;;;;1.30;96.17;95248.38;4945572;29;20185;-81
2023/11/26 01:12:15;;;;;;;5.83;1.60;;;;;;;1.35;95.64;95242.97;4968702;28;20216;-81
2023/11/26 01:14:40;;;;;;;2.90;1.27;;;;;;;1.26;95.06;95252.06;4964238;28;20182;-80
2023/11/26 01:17:05;;;;;;;3.57;1.43;;;;;;;1.27;95.80;95258.81;4937993;28;20185;-79
2023/11/26 01:19:31;;;;;;;8.57;1.80;;;;;;;1.28;95.76;95257.06;4942494;28;20177;-80
2023/11/26 01:21:56;;;;;;;4.97;1.63;;;;;;;1.31;95.39;95259.41;4935466;28;20216;-80
2023/11/26 01:24:22;;;;;;;3.43;1.30;;;;;;;1.34;95.29;95261.81;4971099;28;20321;-78
2023/11/26 01:26:47;;;;;;;2.90;1.30;;;;;;;1.35;95.97;95266.81;4922253;29;20177;-78
2023/11/26 01:29:12;;;;;;;7.47;1.33;;;;;;;1.35;96.28;95260.88;4974372;28;20200;-79
2023/11/26 01:31:38;;;;;;;6.27;1.70;;;;;;;1.48;95.42;95266.00;4941779;29;20205;-79
2023/11/26 01:34:04;;;;;;;6.13;1.90;;;;;;;1.30;96.57;95273.13;4945377;28;20249;-79
2023/11/26 01:36:29;;;;;;;2.57;1.53;;;;;;;1.48;96.70;95278.81;4939268;28;20200;-78
2023/11/26 01:38:55;;;;;;;5.97;1.60;;;;;;;1.60;95.69;95285.72;4978271;28;20196;-82
2023/11/26 01:41:21;;;;;;;5.40;1.77;;;;;;;1.62;95.55;95283.84;4977749;28;20222;-82
2023/11/26 01:43:46;;;;;;;3.57;1.70;;;;;;;1.57;95.76;95281.59;4964045;28;20342;-82
2023/11/26 01:46:12;;;;;;;3.83;1.90;;;;;;;1.64;95.16;95282.00;4963002;28;20231;-81
2023/11/26 01:48:38;;;;;;;2.47;1.70;;;;;;;1.56;95.23;95289.38;4962504;28;20702;-80
2023/11/26 01:51:06;;;;;;;4.23;1.97;;;;;;;1.60;94.60;95290.81;4964771;28;20181;-78
2023/11/26 01:53:33;;;;;;;4.90;1.77;;;;;;;1.54;94.45;95281.78;4978873;28;20686;-79
2023/11/26 01:55:59;;;;;;;5.00;2.10;;;;;;;1.52;94.49;95293.88;4945193;28;20219;-80
2023/11/26 01:58:25;;;;;;;3.77;1.70;;;;;;;1.42;95.03;95288.53;4943362;28;20269;-79
2023/11/26 02:00:50;;;;;;;3.00;1.77;;;;;;;1.48;95.35;95292.41;4959927;28;20209;-81
2023/11/26 02:03:16;;;;;;;8.20;2.00;;;;;;;1.49;95.52;95290.69;4943268;28;20729;-79
2023/11/26 02:05:42;;;;;;;8.80;2.10;;;;;;;1.40;95.24;95290.34;4962477;28;20220;-78
2023/11/26 02:08:07;;;;;;;3.57;1.87;;;;;;;1.46;95.14;95288.31;4973387;28;20213;-80
2023/11/26 02:10:33;;;;;;;4.23;2.17;;;;;;;1.47;95.19;95290.78;4944605;28;20651;-79
2023/11/26 02:13:06;;;;;;;3.63;1.73;;;;;;;1.39;95.74;95288.72;4957501;28;20201;-81
2023/11/26 02:15:32;;;;;;;2.53;1.93;;;;;;;1.46;95.36;95296.00;4960240;28;20177;-80
2023/11/26 02:17:58;;;;;;;1.60;1.50;;;;;;;1.51;95.40;95291.41;4940739;28;20746;-79
2023/11/26 02:20:24;;;;;;;4.43;1.80;;;;;;;1.47;95.07;95293.34;4930514;28;20702;-80
2023/11/26 02:22:49;;;;;;;5.27;1.87;;;;;;;1.51;94.95;95296.53;4941014;29;20204;-82
2023/11/26 02:25:15;;;;;;;4.33;2.03;;;;;;;1.46;95.22;95285.78;4925535;28;20581;-80
2023/11/26 02:27:40;;;;;;;3.13;1.90;;;;;;;1.49;95.29;95299.16;4940269;29;20245;-79
2023/11/26 02:30:06;;;;;;;5.53;1.60;;;;;;;1.43;95.07;95294.47;4977005;28;20185;-80
2023/11/26 02:32:31;;;;;;;3.83;2.07;;;;;;;1.40;95.24;95292.91;4949351;28;20216;-79
2023/11/26 02:34:57;;;;;;;5.40;1.70;;;;;;;1.44;95.61;95302.97;4972003;28;20188;-77
2023/11/26 02:37:23;;;;;;;3.53;1.57;;;;;;;1.28;96.17;95303.94;4957526;28;20208;-79
2023/11/26 02:39:48;;;;;;;5.73;1.67;;;;;;;1.34;95.69;95301.00;4966342;28;20217;-78
2023/11/26 02:42:13;;;;;;;2.70;1.30;;;;;;;1.39;95.26;95303.25;4960310;28;20292;-81
2023/11/26 02:44:39;;;;;;;3.97;1.70;;;;;;;1.32;95.52;95300.25;4975633;28;20623;-79
2023/11/26 02:47:04;;;;;;;3.73;1.77;;;;;;;1.35;95.42;95301.81;4942246;28;20177;-77
2023/11/26 02:49:30;;;;;;;4.17;1.37;;;;;;;1.37;94.50;95310.19;4959018;28;20203;-81
2023/11/26 02:51:55;;;;;;;5.33;1.60;;;;;;;1.33;94.94;95309.59;4943682;28;20205;-80
2023/11/26 02:54:21;;;;;;;2.50;1.30;;;;;;;1.24;95.13;95306.78;4944821;28;20178;-82
2023/11/26 02:56:46;;;;;;;6.73;1.93;;;;;;;1.25;95.13;95306.69;4939947;29;20303;-80
2023/11/26 02:59:11;;;;;;;2.73;1.30;;;;;;;1.27;95.04;95315.09;4958653;28;20297;-82
2023/11/26 03:01:37;;;;;;;4.73;1.37;;;;;;;1.28;95.42;95308.22;4975158;28;20205;-80
2023/11/26 03:04:03;;;;;;;4.60;1.67;;;;;;;1.40;95.10;95321.06;4941532;28;20262;-79
2023/11/26 03:06:28;;;;;;;3.80;1.43;;;;;;;1.35;94.72;95323.09;4955120;28;20192;-82
2023/11/26 03:09:00;;;;;;;2.60;1.17;;;;;;;1.42;94.98;95315.84;4940012;28;20260;-81
2023/11/26 03:14:15;;;;;;;4.43;1.10;;;;;;;1.50;94.55;95316.16;4942690;28;20196;-81
2023/11/26 03:16:44;;;;;;;3.47;1.30;;;;;;;1.54;94.90;95317.63;4970720;28;20177;-81
2023/11/26 03:19:14;;;;;;;1.57;1.47;;;;;;;1.66;94.28;95326.25;4945050;28;20201;-81
2023/11/26 03:21:44;;;;;;;3.63;1.50;;;;;;;1.66;93.64;95331.38;4940388;29;20197;-79
2023/11/26 03:24:10;;;;;;;3.87;1.40;;;;;;;1.75;93.33;95333.31;4957947;28;20269;-80
2023/11/26 03:26:36;;;;;;;3.83;1.47;;;;;;;1.73;92.95;95332.63;4938093;28;20181;-80
2023/11/26 03:29:02;;;;;;;4.57;1.50;;;;;;;1.73;92.91;95330.06;4940525;28;20197;-81
2023/11/26 03:31:30;;;;;;;2.73;1.20;;;;;;;1.73;93.58;95324.13;4960982;28;20181;-80
2023/11/26 03:33:57;;;;;;;3.43;1.53;;;;;;;1.68;93.13;95325.25;4954830;28;20209;-80
2023/11/26 03:36:22;;;;;;;2.83;1.50;;;;;;;1.62;93.08;95320.50;4954278;28;20189;-80
2023/11/26 03:38:47;;;;;;;2.13;1.37;;;;;;;1.62;93.06;95320.50;4955823;28;20192;-79
2023/11/26 03:41:13;;;;;;;2.23;1.20;;;;;;;1.65;92.95;95324.59;4958656;28;20233;-80
2023/11/26 03:43:38;;;;;;;1.83;0.97;;;;;;;1.63;92.82;95322.16;4934248;28;20205;-80
2023/11/26 03:46:03;;;;;;;3.67;1.00;;;;;;;1.62;92.72;95327.38;4939835;28;20287;-79
2023/11/26 03:48:29;;;;;;;1.47;1.20;;;;;;;1.63;92.54;95323.88;4963730;28;20565;-80
2023/11/26 03:50:54;;;;;;;3.43;1.70;;;;;;;1.65;92.03;95330.53;4959562;28;20190;-81
2023/11/26 03:53:20;;;;;;;5.13;1.40;;;;;;;1.65;91.82;95320.31;4959143;28;20616;-79
2023/11/26 03:55:45;;;;;;;1.67;1.10;;;;;;;1.66;92.00;95323.69;4959506;28;20178;-78
2023/11/26 03:58:11;;;;;;;2.47;1.20;;;;;;;1.73;91.94;95322.38;4958831;28;20284;-78
2023/11/26 04:00:38;;;;;;;1.70;1.00;;;;;;;1.69;91.97;95326.88;4938436;29;20216;-80
2023/11/26 04:03:03;;;;;;;3.73;1.20;;;;;;;1.68;91.55;95327.81;4941757;28;20220;-79
2023/11/26 04:05:28;;;;;;;2.70;1.27;;;;;;;1.56;91.48;95332.88;4944272;28;20228;-79
2023/11/26 04:07:54;;;;;;;2.63;1.10;;;;;;;1.68;91.53;95335.47;4939382;28;20185;-80
2023/11/26 04:10:19;;;;;;;2.03;1.30;;;;;;;1.67;91.83;95338.13;4958886;28;20275;-79
2023/11/26 04:12:44;;;;;;;5.00;1.20;;;;;;;1.69;91.39;95337.13;4956208;28;20220;-80
2023/11/26 04:15:11;;;;;;;1.40;1.20;;;;;;;1.67;91.09;95338.13;4965684;28;20255;-79
2023/11/26 04:17:36;;;;;;;3.00;1.10;;;;;;;1.65;90.82;95339.97;4938749;29;20177;-80
2023/11/26 04:20:05;;;;;;;2.03;1.13;;;;;;;1.66;91.07;95342.41;4965284;28;20192;-80
2023/11/26 04:22:31;;;;;;;1.97;0.97;;;;;;;1.64;90.98;95343.44;4957890;28;20613;-79
2023/11/26 04:24:58;;;;;;;3.60;1.00;;;;;;;1.67;90.86;95343.22;4941849;28;20212;-80
2023/11/26 04:27:24;;;;;;;1.83;0.97;;;;;;;1.68;90.79;95353.41;4956162;28;20410;-80
2023/11/26 04:29:50;;;;;;;2.83;1.13;;;;;;;1.54;90.88;95348.34;4964991;28;20181;-81
2023/11/26 04:32:16;;;;;;;2.43;1.20;;;;;;;1.54;90.96;95347.50;4940383;28;20412;-80
2023/11/26 04:34:42;;;;;;;2.10;1.30;;;;;;;1.65;90.49;95350.19;4938623;29;20183;-79
2023/11/26 04:37:14;;;;;;;1.23;0.90;;;;;;;1.55;90.36;95349.16;4956050;28;20272;-80
2023/11/26 04:39:39;;;;;;;2.70;1.07;;;;;;;1.54;90.80;95357.75;4941213;28;20235;-81
2023/11/26 04:42:05;;;;;;;3.67;1.10;;;;;;;1.46;90.52;95357.41;4939668;28;20232;-80
2023/11/26 04:44:30;;;;;;;2.40;0.93;;;;;;;1.41;89.96;95357.69;4960648;28;20678;-78
2023/11/26 04:46:56;;;;;;;1.60;1.03;;;;;;;1.53;89.61;95367.16;4923226;28;20264;-79
2023/11/26 04:49:23;;;;;;;1.33;0.87;;;;;;;1.64;89.01;95371.59;4966272;28;20185;-79
2023/11/26 04:51:49;;;;;;;1.20;1.00;;;;;;;1.62;88.81;95369.16;4974741;28;20200;-80
2023/11/26 04:54:15;;;;;;;3.30;1.10;;;;;;;1.66;88.94;95380.00;4944751;28;20753;-79
2023/11/26 04:56:41;;;;;;;2.03;1.20;;;;;;;1.72;89.05;95376.22;4924968;29;20207;-79
2023/11/26 04:59:08;;;;;;;1.07;0.97;;;;;;;1.75;89.09;95376.84;4937019;28;20314;-80
2023/11/26 05:01:36;;;;;;;2.80;1.90;;;;;;;1.77;89.19;95375.03;4939695;28;20196;-80
2023/11/26 05:04:02;;;;;;;1.70;1.20;;;;;;;1.75;89.94;95381.97;4958144;28;20205;-79
2023/11/26 05:06:28;;;;;;;1.97;1.50;;;;;;;1.68;90.72;95378.19;4959323;28;20207;-81
2023/11/26 05:08:53;;;;;;;4.40;1.30;;;;;;;1.77;90.37;95381.88;4939456;28;20718;-81
2023/11/26 05:11:18;;;;;;;2.93;1.33;;;;;;;1.86;90.22;95389.00;4974959;28;20211;-81
2023/11/26 05:13:45;;;;;;;2.30;1.20;;;;;;;1.83;90.82;95395.09;4956600;28;20422;-80
2023/11/26 05:16:11;;;;;;;2.17;1.30;;;;;;;1.91;90.44;95394.63;4969103;28;20254;-78
2023/11/26 05:18:36;;;;;;;2.03;1.10;;;;;;;1.89;90.85;95399.84;4982830;28;20266;-77
2023/11/26 05:21:02;;;;;;;2.30;1.50;;;;;;;1.88;91.70;95398.19;4998211;28;20537;-81
2023/11/26 05:23:27;;;;;;;1.40;1.10;;;;;;;1.94;91.00;95396.97;4981789;28;20657;-82
2023/11/26 05:25:53;;;;;;;1.43;1.17;;;;;;;1.97;91.53;95389.94;4965805;28;20267;-81
2023/11/26 05:28:18;;;;;;;1.27;1.13;;;;;;;1.89;91.48;95393.91;4963996;28;20197;-82
2023/11/26 05:30:44;;;;;;;3.10;1.47;;;;;;;1.97;91.82;95396.78;4942680;28;20192;-81
2023/11/26 05:33:09;;;;;;;3.07;1.50;;;;;;;2.04;91.64;95399.78;4946145;28;20236;-82
2023/11/26 05:35:36;;;;;;;4.00;1.90;;;;;;;1.98;92.20;95395.88;4942534;28;20184;-81
2023/11/26 05:38:02;;;;;;;3.20;1.90;;;;;;;1.97;93.04;95400.16;4946212;28;20196;-81
2023/11/26 05:40:27;;;;;;;9.43;2.23;;;;;;;1.99;93.54;95405.19;4945489;28;20219;-80
2023/11/26 05:42:52;;;;;;;5.03;2.50;;;;;;;2.09;92.87;95408.78;4948613;28;20220;-82
2023/11/26 05:45:18;;;;;;;6.47;2.67;;;;;;;2.10;92.67;95407.88;4950086;28;20217;-80
2023/11/26 05:47:43;;;;;;;4.63;2.37;;;;;;;2.13;92.60;95412.81;4942738;28;20216;-81
2023/11/26 05:50:09;;;;;;;4.03;2.90;;;;;;;2.16;92.68;95419.47;4963707;28;20209;-81
2023/11/26 05:52:35;;;;;;;6.50;3.13;;;;;;;2.01;93.41;95408.47;4964520;28;20208;-81
2023/11/26 05:55:01;;;;;;;6.40;3.40;;;;;;;2.06;93.80;95421.81;4950442;28;20205;-82
2023/11/26 05:57:26;;;;;;;5.40;2.83;;;;;;;2.03;93.67;95421.16;4943938;28;20185;-81
2023/11/26 05:59:52;;;;;;;3.87;3.30;;;;;;;2.03;94.20;95421.97;4943501;28;20182;-80
2023/11/26 06:02:17;;;;;;;8.83;3.20;;;;;;;2.09;93.80;95424.16;4944426;28;20225;-81
2023/11/26 06:04:43;;;;;;;6.23;3.60;;;;;;;2.14;93.52;95421.31;4979403;28;20202;-81
2023/11/26 06:07:08;;;;;;;5.80;3.30;;;;;;;2.10;93.55;95424.97;4943435;28;20276;-78
2023/11/26 06:09:34;;;;;;;5.80;3.53;;;;;;;2.19;93.18;95421.81;4959446;28;20176;-81
2023/11/26 06:11:59;;;;;;;6.40;3.40;;;;;;;2.15;94.12;95433.19;4972311;28;20201;-82
2023/11/26 06:14:25;;;;;;;6.30;3.73;;;;;;;2.11;94.13;95441.97;4979429;28;20177;-82
2023/11/26 06:16:50;;;;;;;10.93;4.20;;;;;;;2.16;93.82;95435.66;4987536;28;20204;-79
2023/11/26 06:19:19;;;;;;;7.23;4.70;;;;;;;2.17;93.71;95442.41;4985089;28;20173;-77
2023/11/26 06:21:44;;;;;;;7.07;4.30;;;;;;;2.22;93.27;95435.28;4970475;28;20197;-78
2023/11/26 06:24:09;;;;;;;6.90;4.57;;;;;;;2.25;93.26;95440.19;4999439;28;20193;-78
2023/11/26 06:26:35;;;;;;;9.23;4.53;;;;;;;2.20;93.40;95444.78;4967395;28;20192;-78
2023/11/26 06:29:01;;;;;;;6.97;4.70;;;;;;;2.19;93.97;95447.44;5004666;28;20249;-78
2023/11/26 06:31:29;;;;;;;7.07;3.97;;;;;;;2.21;93.54;95450.75;4979996;28;20212;-77
2023/11/26 06:33:55;;;;;;;8.30;4.17;;;;;;;2.19;93.92;95453.38;4969357;28;20228;-77
2023/11/26 06:36:22;;;;;;;9.97;4.03;;;;;;;2.23;93.81;95461.72;4972423;28;20192;-78
2023/11/26 06:38:48;;;;;;;7.03;4.00;;;;;;;2.32;93.01;95461.13;4975281;28;20203;-78
2023/11/26 06:41:25;;;;;;;7.47;4.23;;;;;;;2.35;93.24;95463.47;4953329;28;20201;-78
2023/11/26 06:44:00;;;;;;;7.10;4.43;;;;;;;2.26;93.39;95469.19;5001455;28;20681;-77
2023/11/26 06:46:29;;;;;;;8.97;4.50;;;;;;;2.32;93.47;95467.97;4965983;28;20260;-77
2023/11/26 06:48:56;;;;;;;7.63;5.70;;;;;;;2.22;94.13;95468.56;4978034;28;20192;-78
2023/11/26 06:51:22;;;;;;;14.53;5.60;;;;;;;2.28;94.24;95473.28;4964591;28;20177;-78
2023/11/26 06:53:48;;;;;;;10.73;5.00;;;;;;;2.41;93.47;95472.50;4948182;28;20590;-80
2023/11/26 06:56:15;;;;;;;8.43;4.73;;;;;;;2.35;93.54;95471.16;4943120;28;20209;-81
2023/11/26 06:58:41;;;;;;;5.87;4.67;;;;;;;2.41;93.40;95473.31;4948797;28;20182;-81
2023/11/26 07:01:07;;;;;;;8.73;5.07;;;;;;;2.40;93.69;95471.69;4968282;28;20213;-80
2023/11/26 07:03:33;;;;;;;12.43;5.90;;;;;;;2.42;93.59;95469.84;4975439;28;20223;-80
2023/11/26 07:06:00;;;;;;;10.67;4.90;;;;;;;2.41;93.82;95477.63;4958664;28;20193;-79
2023/11/26 07:08:26;;;;;;;9.43;5.40;;;;;;;2.42;93.95;95480.09;4937985;28;20232;-79
2023/11/26 07:10:51;;;;;;;12.83;5.37;;;;;;;2.45;93.43;95479.88;4972653;28;20189;-80
2023/11/26 07:13:17;;;;;;;9.60;4.93;;;;;;;2.47;93.64;95485.75;4954144;28;20223;-79
2023/11/26 07:15:42;;;;;;;10.20;5.67;;;;;;;2.50;93.32;95492.41;4938429;29;20194;-80
2023/11/26 07:18:09;;;;;;;8.13;6.57;;;;;;;2.55;93.32;95501.44;4951662;28;20195;-81
2023/11/26 07:20:34;;;;;;;9.33;6.23;;;;;;;2.50;93.39;95495.78;4942659;28;20665;-79
2023/11/26 07:22:59;;;;;;;9.43;5.73;;;;;;;2.51;93.73;95496.63;4939178;28;20229;-81
2023/11/26 07:25:25;;;;;;;7.87;5.63;;;;;;;2.59;93.11;95496.13;4940824;28;20627;-80
2023/11/26 07:27:51;;;;;;;8.17;6.30;;;;;;;2.52;93.25;95505.94;4956185;28;20686;-79
2023/11/26 07:30:17;;;;;;;10.63;6.57;;;;;;;2.60;93.41;95502.88;4961958;28;20595;-80
2023/11/26 07:32:44;;;;;;;10.33;7.20;;;;;;;2.61;93.18;95507.09;4929969;29;20262;-80
2023/11/26 07:35:09;;;;;;;8.40;6.20;;;;;;;2.44;94.03;95506.44;4941798;28;20236;-80
2023/11/26 07:37:35;;;;;;;10.00;7.07;;;;;;;2.47;94.00;95507.97;4941421;28;20840;-79
2023/11/26 07:40:01;;;;;;;10.73;6.10;;;;;;;2.43;94.54;95502.22;4943367;28;20254;-80
2023/11/26 07:42:26;;;;;;;14.07;7.63;;;;;;;2.55;93.88;95513.44;4963528;28;20346;-80
2023/11/26 07:44:52;;;;;;;36.73;18.23;;;;;;;2.62;93.46;95516.41;4943973;28;20201;-81
2023/11/26 07:47:18;;;;;;;66.43;26.83;;;;;;;2.58;93.90;95508.13;4957228;28;20195;-82
2023/11/26 07:49:43;;;;;;;18.07;8.97;;;;;;;2.67;93.63;95509.25;4973966;28;20201;-81
2023/11/26 07:52:08;;;;;;;13.07;8.07;;;;;;;2.73;92.78;95519.91;4928940;28;20899;-82
2023/11/26 07:54:34;;;;;;;11.90;8.07;;;;;;;2.61;93.53;95515.59;4962808;28;20181;-82
2023/11/26 07:56:59;;;;;;;12.67;7.73;;;;;;;2.79;93.11;95523.81;4956841;28;20580;-82
2023/11/26 07:59:25;;;;;;;17.20;10.27;;;;;;;2.90;92.73;95515.41;4972292;28;20246;-83
2023/11/26 08:01:51;;;;;;;42.70;26.10;;;;;;;2.85;92.78;95515.75;4966953;28;20201;-82
2023/11/26 08:04:17;;;;;;;26.37;17.57;;;;;;;2.92;92.33;95522.13;4976880;28;20272;-81
2023/11/26 08:06:46;;;;;;;15.13;9.43;;;;;;;2.84;92.92;95526.94;4937217;29;20285;-83
2023/11/26 08:09:14;;;;;;;12.33;8.07;;;;;;;2.77;93.35;95531.63;4934835;28;20207;-81
2023/11/26 08:11:44;;;;;;;12.53;8.57;;;;;;;2.90;92.63;95529.06;4937081;28;20206;-83
2023/11/26 08:14:12;;;;;;;15.73;9.97;;;;;;;2.98;92.40;95529.38;4940617;28;20182;-82
2023/11/26 08:16:41;;;;;;;16.70;9.37;;;;;;;2.93;92.52;95534.00;4938694;28;20189;-81
2023/11/26 08:19:12;;;;;;;16.37;9.00;;;;;;;2.83;92.31;95533.81;4943559;28;20262;-81
2023/11/26 08:21:40;;;;;;;14.63;8.60;;;;;;;2.91;92.86;95540.97;4957428;28;20235;-81
2023/11/26 08:24:13;;;;;;;15.40;7.50;;;;;;;2.86;92.60;95537.91;4953541;28;20233;-80
2023/11/26 08:26:39;;;;;;;9.57;7.13;;;;;;;2.86;92.88;95542.22;4964194;28;20189;-81
2023/11/26 08:29:05;;;;;;;13.33;9.53;;;;;;;3.03;91.93;95537.59;4923852;28;20280;-81
2023/11/26 08:31:31;;;;;;;11.33;8.57;;;;;;;2.99;91.98;95536.16;4925927;28;20196;-81
2023/11/26 08:33:57;;;;;;;11.97;7.50;;;;;;;2.95;92.40;95529.59;4951953;28;20618;-82
2023/11/26 08:36:23;;;;;;;14.43;9.17;;;;;;;3.16;91.35;95526.50;4942362;28;20367;-82
2023/11/26 08:38:50;;;;;;;14.83;7.03;;;;;;;3.09;91.25;95531.22;4955895;28;20182;-81
2023/11/26 08:41:20;;;;;;;10.23;5.80;;;;;;;2.89;92.76;95527.44;4957252;28;20780;-81
2023/11/26 08:43:45;;;;;;;11.20;6.73;;;;;;;3.19;91.16;95534.03;4937722;28;20208;-82
2023/11/26 08:46:12;;;;;;;10.07;6.93;;;;;;;3.13;90.16;95532.69;4940649;29;20240;-81
2023/11/26 08:48:37;;;;;;;7.43;6.07;;;;;;;3.33;90.57;95539.84;4971293;28;20650;-82
2023/11/26 08:51:04;;;;;;;11.77;6.63;;;;;;;3.23;90.67;95533.69;4938606;28;20203;-81
2023/11/26 08:53:29;;;;;;;12.20;7.50;;;;;;;3.12;90.71;95531.84;4958137;28;20663;-81
2023/11/26 08:55:56;;;;;;;11.03;6.60;;;;;;;3.29;90.91;95530.72;4925315;28;20173;-82
2023/11/26 08:58:22;;;;;;;10.83;7.07;;;;;;;3.32;90.35;95527.94;4938561;28;20198;-82
2023/11/26 09:00:47;;;;;;;12.87;8.27;;;;;;;3.53;90.12;95533.34;4971952;28;20195;-82
2023/11/26 09:03:13;;;;;;;19.00;13.73;;;;;;;3.65;89.99;95529.13;4955179;28;20224;-82
2023/11/26 09:05:39;;;;;;;17.87;10.33;;;;;;;3.63;89.08;95534.38;4933969;28;20208;-83
2023/11/26 09:08:04;;;;;;;10.00;7.23;;;;;;;3.79;89.27;95525.59;4943868;28;20724;-83
2023/11/26 09:10:30;;;;;;;10.13;7.47;;;;;;;3.76;88.73;95530.97;4972854;28;20186;-83
2023/11/26 09:12:56;;;;;;;14.17;7.30;;;;;;;3.87;88.54;95536.16;4972289;28;20231;-83
2023/11/26 09:15:25;;;;;;;9.00;6.60;;;;;;;3.68;88.45;95536.63;4956570;28;20209;-83
2023/11/26 09:17:51;;;;;;;12.60;6.93;;;;;;;3.74;88.49;95537.97;4952616;28;20300;-82
2023/11/26 09:20:16;;;;;;;12.57;6.50;;;;;;;3.45;89.03;95543.34;4975208;28;20283;-80
2023/11/26 09:22:42;;;;;;;11.13;6.30;;;;;;;3.49;89.05;95549.91;4955416;28;20201;-80
2023/11/26 09:25:08;;;;;;;11.60;6.70;;;;;;;3.52;88.77;95557.38;4966822;28;20205;-79
2023/11/26 09:27:34;;;;;;;13.53;7.83;;;;;;;3.53;88.47;95558.22;4962620;28;20201;-81
2023/11/26 09:30:00;;;;;;;9.83;5.87;;;;;;;3.57;88.62;95547.63;4952556;28;20187;-83
2023/11/26 09:32:25;;;;;;;11.43;5.90;;;;;;;3.64;88.21;95553.19;4957931;28;20244;-82
2023/11/26 09:34:53;;;;;;;10.93;5.63;;;;;;;3.74;88.47;95555.94;4939544;28;20188;-81
2023/11/26 09:37:19;;;;;;;9.60;6.37;;;;;;;3.72;87.69;95558.63;4952421;28;20193;-81
2023/11/26 09:39:45;;;;;;;13.73;6.03;;;;;;;3.79;87.11;95561.56;4969186;28;20593;-81
2023/11/26 09:42:11;;;;;;;14.03;7.30;;;;;;;4.01;86.04;95556.59;4941410;29;20308;-81
2023/11/26 09:44:37;;;;;;;7.53;6.20;;;;;;;4.11;85.90;95556.75;4960970;28;20216;-81
2023/11/26 09:47:03;;;;;;;9.50;5.93;;;;;;;4.07;85.65;95566.44;4939086;28;20204;-81
2023/11/26 09:49:28;;;;;;;11.23;5.93;;;;;;;4.18;85.94;95563.94;4970630;28;20244;-81
2023/11/26 09:51:57;;;;;;;10.30;5.97;;;;;;;4.19;85.79;95564.75;4969397;28;20205;-81
2023/11/26 09:54:26;;;;;;;9.50;5.97;;;;;;;4.28;85.06;95561.53;4975610;28;20204;-81
2023/11/26 09:56:55;;;;;;;9.43;6.53;;;;;;;4.32;84.47;95556.97;4938863;29;20188;-81
2023/11/26 09:59:23;;;;;;;12.70;7.43;;;;;;;4.33;83.89;95556.88;4918528;28;20239;-81
2023/11/26 10:01:52;;;;;;;10.57;6.43;;;;;;;4.19;84.85;95555.28;4969356;28;20208;-81
2023/11/26 10:04:17;;;;;;;12.57;7.13;;;;;;;4.52;83.96;95551.25;4956193;28;20738;-81
2023/11/26 10:06:49;;;;;;;10.10;4.80;;;;;;;4.31;83.66;95555.34;4954781;28;20183;-79
2023/11/26 10:09:19;;;;;;;15.20;7.90;;;;;;;4.62;83.01;95546.25;4956543;28;20208;-79
2023/11/26 10:11:45;;;;;;;8.23;5.20;;;;;;;4.58;82.52;95547.41;4955232;28;20226;-80
2023/11/26 10:14:19;;;;;;;8.57;4.57;;;;;;;4.71;82.32;95543.00;4939474;28;20183;-80
2023/11/26 10:16:45;;;;;;;8.00;4.13;;;;;;;4.48;82.90;95529.25;4937720;29;20207;-83
2023/11/26 10:19:25;;;;;;;6.23;4.40;;;;;;;4.60;82.86;95533.50;4955255;28;20185;-81
2023/11/26 10:21:54;;;;;;;10.17;5.70;;;;;;;4.44;82.49;95532.97;4962616;28;20196;-79
2023/11/26 10:24:22;;;;;;;4.90;4.17;;;;;;;4.51;82.43;95534.19;4959335;28;20216;-79
2023/11/26 10:26:51;;;;;;;4.70;3.80;;;;;;;4.55;82.13;95535.59;4943075;29;20192;-81
2023/11/26 10:29:18;;;;;;;6.20;4.43;;;;;;;4.61;82.10;95537.72;4974209;28;20562;-82
2023/11/26 10:32:12;;;;;;;7.97;4.70;;;;;;;4.65;81.84;95528.84;4951511;28;20830;-83
2023/11/26 10:34:39;;;;;;;7.53;4.73;;;;;;;4.81;81.64;95531.94;4926200;28;20620;-81
2023/11/26 10:37:25;;;;;;;7.07;5.27;;;;;;;5.02;81.59;95526.13;4939613;28;20735;-82
2023/11/26 10:39:55;;;;;;;7.83;4.00;;;;;;;4.93;80.92;95517.31;4923852;29;20219;-83
2023/11/26 10:42:21;;;;;;;7.63;4.20;;;;;;;4.85;81.41;95522.22;4926144;29;20247;-82
2023/11/26 10:44:51;;;;;;;10.30;4.73;;;;;;;4.83;80.12;95517.19;4940335;29;20639;-81
2023/11/26 10:47:20;;;;;;;7.37;4.20;;;;;;;4.70;80.72;95519.03;4939132;29;20205;-83
2023/11/26 10:49:52;;;;;;;7.30;4.40;;;;;;;4.43;81.13;95516.72;4942947;29;20198;-82
2023/11/26 10:52:33;;;;;;;7.77;4.27;;;;;;;3.97;83.17;95522.56;4937882;29;20212;-83
2023/11/26 10:55:07;;;;;;;6.53;4.20;;;;;;;4.19;82.12;95514.16;4945960;28;20191;-82
2023/11/26 10:57:39;;;;;;;9.47;4.13;;;;;;;4.64;81.51;95522.06;4954997;28;20733;-82
2023/11/26 11:00:07;;;;;;;6.67;4.27;;;;;;;5.04;80.65;95525.09;4967960;28;20502;-83
2023/11/26 11:02:33;;;;;;;12.40;7.40;;;;;;;5.06;79.59;95522.41;4961287;28;20209;-80
2023/11/26 11:04:59;;;;;;;6.73;4.17;;;;;;;5.02;79.61;95528.69;4974489;28;20576;-82
2023/11/26 11:07:24;;;;;;;10.57;4.10;;;;;;;4.93;79.40;95519.09;4937679;29;20260;-82
2023/11/26 11:09:58;;;;;;;8.53;4.47;;;;;;;4.62;79.45;95517.97;4943581;29;20837;-83
2023/11/26 11:12:25;;;;;;;11.77;5.27;;;;;;;4.69;79.32;95514.84;4971534;28;20216;-82
2023/11/26 11:14:52;;;;;;;8.70;5.40;;;;;;;4.74;79.84;95507.59;4940091;29;20185;-81
2023/11/26 11:17:28;;;;;;;9.47;5.40;;;;;;;4.36;80.93;95504.44;4938089;29;20189;-83
2023/11/26 11:19:55;;;;;;;12.47;6.23;;;;;;;4.84;79.45;95513.69;4922593;28;20275;-81
2023/11/26 11:22:31;;;;;;;8.63;5.20;;;;;;;4.71;79.45;95519.88;4955705;28;20575;-83
2023/11/26 11:25:11;;;;;;;13.33;5.27;;;;;;;4.78;79.50;95513.34;4957499;28;20260;-82
2023/11/26 11:27:54;;;;;;;8.40;4.40;;;;;;;4.58;79.97;95519.91;4939347;29;20196;-82
2023/11/26 11:30:31;;;;;;;7.37;3.67;;;;;;;4.59;80.12;95508.69;4938628;28;20240;-81
2023/11/26 11:33:09;;;;;;;7.80;4.23;;;;;;;4.76;79.60;95510.84;4925682;28;20234;-80
2023/11/26 11:35:41;;;;;;;9.13;4.13;;;;;;;4.75;79.74;95511.78;4969734;28;20618;-80
2023/11/26 11:38:09;;;;;;;8.20;3.67;;;;;;;4.17;79.68;95508.31;4919786;28;20209;-82
2023/11/26 11:41:11;;;;;;;8.90;3.30;;;;;;;4.52;80.28;95500.63;4934797;29;20204;-81